Time;durP1;ratioP1;P1;durP2;ratioP2;P2;SDS_P1;SDS_P2;PMS_P1;PMS_P2;Temp;Humidity;BMP_temperature;BMP_pressure;BME280_temperature;BME280_humidity;BME280_pressure;Samples;Min_cycle;Max_cycle;Signal;HPM_P1;HPM_P2
2021/09/15 00:00:57;;;;;;;3.75;2.65;;;;;;;;;;4432716;32;20577;-57
2021/09/15 00:03:23;;;;;;;5.00;3.33;;;;;;;;;;4418695;32;20308;-54
2021/09/15 00:05:48;;;;;;;6.32;3.00;;;;;;;;;;4431250;32;20205;-54
2021/09/15 00:08:14;;;;;;;6.70;3.17;;;;;;;;;;4432653;32;20216;-54
2021/09/15 00:10:40;;;;;;;4.47;2.78;;;;;;;;;;4432737;32;20278;-55
2021/09/15 00:13:05;;;;;;;6.30;3.10;;;;;;;;;;4428425;32;20249;-54
2021/09/15 00:15:31;;;;;;;5.37;2.83;;;;;;;;;;4417322;32;20352;-54
2021/09/15 00:17:57;;;;;;;5.50;3.10;;;;;;;;;;4432366;32;20295;-54
2021/09/15 00:20:22;;;;;;;5.12;2.97;;;;;;;;;;4425822;32;20235;-55
2021/09/15 00:22:48;;;;;;;4.22;2.95;;;;;;;;;;4417408;32;20279;-56
2021/09/15 00:25:13;;;;;;;9.40;3.47;;;;;;;;;;4417269;32;20302;-55
2021/09/15 00:27:39;;;;;;;7.90;3.67;;;;;;;;;;4417783;32;20236;-54
2021/09/15 00:30:05;;;;;;;4.93;3.83;;;;;;;;;;4417202;32;20299;-54
2021/09/15 00:32:31;;;;;;;12.75;4.07;;;;;;;;;;4417491;32;20583;-56
2021/09/15 00:34:56;;;;;;;5.18;3.70;;;;;;;;;;4417593;32;20331;-54
2021/09/15 00:37:21;;;;;;;6.35;3.42;;;;;;;;;;4417139;32;20664;-56
2021/09/15 00:39:47;;;;;;;3.80;3.15;;;;;;;;;;4416097;32;20750;-56
2021/09/15 00:42:12;;;;;;;7.90;3.17;;;;;;;;;;4418841;32;20216;-56
2021/09/15 00:44:38;;;;;;;6.80;3.75;;;;;;;;;;4418937;32;20275;-54
2021/09/15 00:47:03;;;;;;;5.93;3.45;;;;;;;;;;4417560;32;20204;-55
2021/09/15 00:49:29;;;;;;;6.87;4.18;;;;;;;;;;4417341;32;20272;-56
2021/09/15 00:51:54;;;;;;;6.05;3.00;;;;;;;;;;4428731;32;20690;-55
2021/09/15 00:54:21;;;;;;;5.03;3.33;;;;;;;;;;4435832;32;20355;-54
2021/09/15 00:56:47;;;;;;;5.40;3.45;;;;;;;;;;4435705;32;20355;-54
2021/09/15 00:59:12;;;;;;;7.68;4.25;;;;;;;;;;4435123;32;20781;-56
2021/09/15 01:01:38;;;;;;;16.17;4.30;;;;;;;;;;4434196;32;20237;-54
2021/09/15 01:04:04;;;;;;;11.12;5.05;;;;;;;;;;4435788;32;21173;-56
2021/09/15 01:06:32;;;;;;;15.27;7.37;;;;;;;;;;4435409;32;20193;-56
2021/09/15 01:08:59;;;;;;;18.80;7.15;;;;;;;;;;4435291;32;20224;-55
2021/09/15 01:11:27;;;;;;;18.90;6.90;;;;;;;;;;4434326;32;20638;-56
2021/09/15 01:13:53;;;;;;;10.63;5.57;;;;;;;;;;4433040;32;20213;-56
2021/09/15 01:16:18;;;;;;;12.15;3.92;;;;;;;;;;4422321;32;20262;-56
2021/09/15 01:18:45;;;;;;;6.70;3.00;;;;;;;;;;4420230;32;20248;-56
2021/09/15 01:21:11;;;;;;;8.32;3.95;;;;;;;;;;4410757;32;20205;-56
2021/09/15 01:23:37;;;;;;;4.78;2.87;;;;;;;;;;4420009;32;20347;-55
2021/09/15 01:26:03;;;;;;;5.55;3.53;;;;;;;;;;4419584;32;20262;-55
2021/09/15 01:28:28;;;;;;;5.80;3.20;;;;;;;;;;4419728;32;20301;-54
2021/09/15 01:30:54;;;;;;;5.03;3.53;;;;;;;;;;4419087;32;20340;-54
2021/09/15 01:33:21;;;;;;;6.50;3.05;;;;;;;;;;4424965;32;20241;-54
2021/09/15 01:35:46;;;;;;;6.00;3.40;;;;;;;;;;4420058;32;20268;-54
2021/09/15 01:38:12;;;;;;;7.90;3.58;;;;;;;;;;4419433;32;20217;-56
2021/09/15 01:40:38;;;;;;;6.90;3.03;;;;;;;;;;4419598;32;20288;-54
2021/09/15 01:43:05;;;;;;;3.12;2.78;;;;;;;;;;4419542;32;20282;-54
2021/09/15 01:45:30;;;;;;;6.47;3.37;;;;;;;;;;4419338;32;20247;-55
2021/09/15 01:47:56;;;;;;;3.87;2.60;;;;;;;;;;4419819;32;20701;-55
2021/09/15 01:50:21;;;;;;;4.18;3.25;;;;;;;;;;4424640;32;20197;-55
2021/09/15 01:52:47;;;;;;;5.12;3.50;;;;;;;;;;4434896;32;20224;-55
2021/09/15 01:55:29;;;;;;;9.32;3.72;;;;;;;;;;4434843;32;20332;-55
2021/09/15 01:57:54;;;;;;;8.90;3.55;;;;;;;;;;4434161;32;20236;-54
2021/09/15 02:00:20;;;;;;;6.68;3.58;;;;;;;;;;4420089;32;20190;-54
2021/09/15 02:02:50;;;;;;;4.32;2.80;;;;;;;;;;4418850;32;20276;-54
2021/09/15 02:05:16;;;;;;;5.68;3.83;;;;;;;;;;4419169;32;20558;-54
2021/09/15 02:07:42;;;;;;;4.37;3.53;;;;;;;;;;4419183;32;20303;-55
2021/09/15 02:10:09;;;;;;;5.10;4.00;;;;;;;;;;4421032;32;20277;-54
2021/09/15 02:12:34;;;;;;;8.55;5.07;;;;;;;;;;4419149;32;20257;-54
2021/09/15 02:15:00;;;;;;;9.00;4.70;;;;;;;;;;4418627;32;20201;-54
2021/09/15 02:17:25;;;;;;;5.53;4.30;;;;;;;;;;4430696;32;20286;-55
2021/09/15 02:19:51;;;;;;;6.32;4.25;;;;;;;;;;4430728;32;20840;-55
2021/09/15 02:22:16;;;;;;;11.05;4.60;;;;;;;;;;4418702;32;20572;-55
2021/09/15 02:24:42;;;;;;;11.52;3.22;;;;;;;;;;4420125;32;20692;-57
2021/09/15 02:27:07;;;;;;;5.60;3.58;;;;;;;;;;4418917;32;20217;-55
2021/09/15 02:29:32;;;;;;;8.93;3.17;;;;;;;;;;4418825;32;20269;-54
2021/09/15 02:31:58;;;;;;;5.93;3.62;;;;;;;;;;4418646;32;20197;-55
2021/09/15 02:34:23;;;;;;;4.62;3.62;;;;;;;;;;4418369;32;20327;-56
2021/09/15 02:36:49;;;;;;;4.00;2.87;;;;;;;;;;4418613;32;20236;-55
2021/09/15 02:39:14;;;;;;;3.75;2.97;;;;;;;;;;4418452;32;20947;-54
2021/09/15 02:41:40;;;;;;;4.70;3.15;;;;;;;;;;4418027;32;20294;-55
2021/09/15 02:44:05;;;;;;;4.18;2.97;;;;;;;;;;4427613;32;20246;-55
2021/09/15 02:46:32;;;;;;;6.82;3.92;;;;;;;;;;4434377;32;20634;-55
2021/09/15 02:48:58;;;;;;;6.50;4.18;;;;;;;;;;4434027;32;20773;-55
2021/09/15 02:51:23;;;;;;;8.93;3.83;;;;;;;;;;4433503;32;20221;-55
2021/09/15 02:53:49;;;;;;;9.73;3.08;;;;;;;;;;4428247;32;20523;-55
2021/09/15 02:56:15;;;;;;;4.55;3.55;;;;;;;;;;4418064;32;20201;-55
2021/09/15 02:58:40;;;;;;;6.78;3.90;;;;;;;;;;4418352;32;20247;-55
2021/09/15 03:01:06;;;;;;;7.22;2.90;;;;;;;;;;4418183;32;20276;-55
2021/09/15 03:03:31;;;;;;;6.15;4.15;;;;;;;;;;4432644;32;20212;-55
2021/09/15 03:05:57;;;;;;;14.02;10.93;;;;;;;;;;4428044;32;20217;-56
2021/09/15 03:08:23;;;;;;;17.77;10.95;;;;;;;;;;4418206;32;20360;-56
2021/09/15 03:10:48;;;;;;;13.00;8.75;;;;;;;;;;4417956;32;20614;-56
2021/09/15 03:13:13;;;;;;;9.55;7.53;;;;;;;;;;4417994;32;20333;-55
2021/09/15 03:15:39;;;;;;;7.70;5.53;;;;;;;;;;4417306;32;20279;-53
2021/09/15 03:18:04;;;;;;;6.55;5.45;;;;;;;;;;4433444;32;20279;-53
2021/09/15 03:20:30;;;;;;;13.80;6.97;;;;;;;;;;4432671;32;20244;-55
2021/09/15 03:22:55;;;;;;;9.68;6.10;;;;;;;;;;4433414;32;20220;-55
2021/09/15 03:25:21;;;;;;;5.70;4.53;;;;;;;;;;4422011;32;20270;-55
2021/09/15 03:27:46;;;;;;;6.25;4.70;;;;;;;;;;4417991;32;20389;-55
2021/09/15 03:30:12;;;;;;;4.07;3.22;;;;;;;;;;4417803;32;20300;-55
2021/09/15 03:32:38;;;;;;;8.95;4.07;;;;;;;;;;4409357;32;20228;-55
2021/09/15 03:35:04;;;;;;;7.15;4.90;;;;;;;;;;4432840;32;20284;-56
2021/09/15 03:37:29;;;;;;;24.52;9.13;;;;;;;;;;4432833;32;20241;-55
2021/09/15 03:39:55;;;;;;;25.35;10.68;;;;;;;;;;4433052;32;20276;-55
2021/09/15 03:42:20;;;;;;;19.90;10.23;;;;;;;;;;4433028;32;20239;-55
2021/09/15 03:44:45;;;;;;;24.50;10.15;;;;;;;;;;4422192;32;20244;-55
2021/09/15 03:47:11;;;;;;;30.05;9.45;;;;;;;;;;4417555;32;20319;-56
2021/09/15 03:49:36;;;;;;;18.20;8.57;;;;;;;;;;4417779;32;20295;-54
2021/09/15 03:52:02;;;;;;;23.02;8.25;;;;;;;;;;4420821;32;20235;-54
2021/09/15 03:54:29;;;;;;;14.85;7.65;;;;;;;;;;4433036;32;20310;-57
2021/09/15 03:56:55;;;;;;;13.75;6.57;;;;;;;;;;4431751;32;20247;-55
2021/09/15 03:59:20;;;;;;;10.75;6.10;;;;;;;;;;4418615;32;20280;-54
2021/09/15 04:01:46;;;;;;;17.65;6.87;;;;;;;;;;4432605;32;20271;-55
2021/09/15 04:04:12;;;;;;;21.60;9.30;;;;;;;;;;4418232;32;20233;-55
2021/09/15 04:06:37;;;;;;;21.45;8.98;;;;;;;;;;4403674;32;20319;-55
2021/09/15 04:09:03;;;;;;;31.20;11.07;;;;;;;;;;4417690;32;20251;-56
2021/09/15 04:11:28;;;;;;;31.05;10.65;;;;;;;;;;4422409;32;20231;-55
2021/09/15 04:13:53;;;;;;;32.28;13.93;;;;;;;;;;4432963;32;20229;-55
2021/09/15 04:16:19;;;;;;;31.48;11.05;;;;;;;;;;4432588;32;20688;-55
2021/09/15 04:18:44;;;;;;;25.60;11.45;;;;;;;;;;4432980;32;20269;-54
2021/09/15 04:21:10;;;;;;;33.65;13.10;;;;;;;;;;4420318;32;20577;-54
2021/09/15 04:31:48;;;;;;;23.65;12.32;;;;;;;;;;4437101;32;20234;-54
2021/09/15 04:34:13;;;;;;;32.50;12.48;;;;;;;;;;4421965;32;20374;-55
2021/09/15 04:36:39;;;;;;;28.67;12.80;;;;;;;;;;4422353;32;20274;-56
2021/09/15 04:39:04;;;;;;;34.72;12.70;;;;;;;;;;4422165;32;20209;-55
2021/09/15 04:41:30;;;;;;;30.42;13.18;;;;;;;;;;4408226;32;20233;-57
2021/09/15 04:43:55;;;;;;;34.03;14.63;;;;;;;;;;4422144;32;20293;-55
2021/09/15 04:46:20;;;;;;;29.65;15.20;;;;;;;;;;4422191;32;20270;-55
2021/09/15 04:48:46;;;;;;;31.70;13.23;;;;;;;;;;4422587;32;20327;-55
2021/09/15 04:51:12;;;;;;;34.25;12.18;;;;;;;;;;4428103;32;20208;-55
2021/09/15 04:53:38;;;;;;;17.23;8.43;;;;;;;;;;4437692;32;20233;-55
2021/09/15 04:56:03;;;;;;;18.17;6.75;;;;;;;;;;4437400;32;20201;-55
2021/09/15 04:58:29;;;;;;;9.68;5.85;;;;;;;;;;4422758;32;20655;-55
2021/09/15 05:00:54;;;;;;;10.65;6.10;;;;;;;;;;4425400;32;20251;-55
2021/09/15 05:03:20;;;;;;;10.05;5.75;;;;;;;;;;4421727;32;20275;-55
2021/09/15 05:05:45;;;;;;;9.35;6.50;;;;;;;;;;4422438;32;20214;-55
2021/09/15 05:08:11;;;;;;;18.42;5.37;;;;;;;;;;4421788;32;20229;-56
2021/09/15 05:10:36;;;;;;;22.50;7.47;;;;;;;;;;4415144;32;20365;-56
2021/09/15 05:13:02;;;;;;;15.82;7.10;;;;;;;;;;4437439;32;20213;-54
2021/09/15 05:15:27;;;;;;;15.85;6.70;;;;;;;;;;4437602;32;20544;-54
2021/09/15 05:17:53;;;;;;;14.25;6.68;;;;;;;;;;4437013;32;20220;-53
2021/09/15 05:20:19;;;;;;;19.50;7.28;;;;;;;;;;4427655;32;20197;-53
2021/09/15 05:22:50;;;;;;;12.75;6.93;;;;;;;;;;4437853;32;20244;-55
2021/09/15 05:25:17;;;;;;;12.70;7.35;;;;;;;;;;4426950;32;20198;-54
2021/09/15 05:27:43;;;;;;;15.90;8.10;;;;;;;;;;4422215;32;20221;-54
2021/09/15 05:30:10;;;;;;;23.40;8.10;;;;;;;;;;4421636;32;20277;-54
2021/09/15 05:32:35;;;;;;;17.25;7.72;;;;;;;;;;4425075;32;20266;-54
2021/09/15 05:35:02;;;;;;;17.15;8.32;;;;;;;;;;4446279;32;20271;-55
2021/09/15 05:37:28;;;;;;;24.37;13.07;;;;;;;;;;4450157;32;20565;-55
2021/09/15 05:39:53;;;;;;;24.52;12.45;;;;;;;;;;4421974;32;20288;-55
2021/09/15 05:42:19;;;;;;;32.63;13.43;;;;;;;;;;4419267;32;20291;-53
2021/09/15 05:44:44;;;;;;;31.30;16.35;;;;;;;;;;4419225;32;20329;-54
2021/09/15 05:47:09;;;;;;;25.75;12.15;;;;;;;;;;4419138;32;20368;-55
2021/09/15 05:49:35;;;;;;;18.00;9.82;;;;;;;;;;4419915;32;20565;-54
2021/09/15 05:52:00;;;;;;;11.20;6.72;;;;;;;;;;4446991;32;20242;-56
2021/09/15 05:54:26;;;;;;;17.80;6.50;;;;;;;;;;4441161;32;20326;-55
2021/09/15 05:56:51;;;;;;;11.35;4.97;;;;;;;;;;4433162;32;20212;-56
2021/09/15 05:59:17;;;;;;;6.75;5.12;;;;;;;;;;4418157;32;20778;-57
2021/09/15 06:01:42;;;;;;;11.05;4.35;;;;;;;;;;4432859;32;20225;-55
2021/09/15 06:04:08;;;;;;;15.02;5.55;;;;;;;;;;4433805;32;20327;-56
2021/09/15 06:06:33;;;;;;;13.60;5.75;;;;;;;;;;4434148;32;20196;-56
2021/09/15 06:08:59;;;;;;;10.10;5.95;;;;;;;;;;4434330;32;20570;-56
2021/09/15 06:11:25;;;;;;;10.35;5.53;;;;;;;;;;4421806;32;20212;-56
2021/09/15 06:13:51;;;;;;;16.52;5.20;;;;;;;;;;4418897;32;20240;-56
2021/09/15 06:16:16;;;;;;;13.95;6.28;;;;;;;;;;4414768;32;20390;-54
2021/09/15 06:18:42;;;;;;;14.98;6.30;;;;;;;;;;4418205;32;20240;-56
2021/09/15 06:21:07;;;;;;;12.65;5.90;;;;;;;;;;4427464;32;20680;-55
2021/09/15 06:23:34;;;;;;;14.63;6.12;;;;;;;;;;4432988;32;20228;-56
2021/09/15 06:26:00;;;;;;;9.45;5.10;;;;;;;;;;4424301;32;20259;-56
2021/09/15 06:28:27;;;;;;;9.73;5.78;;;;;;;;;;4427671;32;20306;-55
2021/09/15 06:30:52;;;;;;;7.75;6.20;;;;;;;;;;4420292;32;20262;-55
2021/09/15 06:33:18;;;;;;;8.02;5.10;;;;;;;;;;4426712;32;20245;-56
2021/09/15 06:35:44;;;;;;;8.55;5.20;;;;;;;;;;4431030;32;20248;-54
2021/09/15 06:38:11;;;;;;;9.25;5.82;;;;;;;;;;4429684;32;20384;-55
2021/09/15 06:40:37;;;;;;;13.98;5.15;;;;;;;;;;4424131;32;20349;-55
2021/09/15 06:43:03;;;;;;;14.63;6.12;;;;;;;;;;4404669;32;20681;-54
2021/09/15 06:45:28;;;;;;;10.77;6.05;;;;;;;;;;4419266;32;20346;-55
2021/09/15 06:47:54;;;;;;;9.98;5.72;;;;;;;;;;4425560;32;20671;-55
2021/09/15 06:50:19;;;;;;;10.88;5.70;;;;;;;;;;4426519;32;20737;-55
2021/09/15 06:52:45;;;;;;;10.15;6.35;;;;;;;;;;4423119;32;20237;-55
2021/09/15 06:55:10;;;;;;;15.68;5.65;;;;;;;;;;4433191;32;20384;-55
2021/09/15 06:57:36;;;;;;;13.23;6.45;;;;;;;;;;4424955;32;20589;-55
2021/09/15 07:00:04;;;;;;;10.68;6.85;;;;;;;;;;4417660;32;20331;-55
2021/09/15 07:02:30;;;;;;;26.35;7.50;;;;;;;;;;4417594;32;20648;-57
2021/09/15 07:04:55;;;;;;;11.77;6.32;;;;;;;;;;4418078;32;20395;-55
2021/09/15 07:07:21;;;;;;;11.23;6.05;;;;;;;;;;4420392;32;20310;-55
2021/09/15 07:09:46;;;;;;;12.75;6.12;;;;;;;;;;4404102;32;20312;-55
2021/09/15 07:12:12;;;;;;;7.55;5.32;;;;;;;;;;4429957;32;20209;-55
2021/09/15 07:14:37;;;;;;;10.20;6.43;;;;;;;;;;4417182;32;20275;-54
2021/09/15 07:17:02;;;;;;;12.68;5.97;;;;;;;;;;4432792;32;20202;-54
2021/09/15 07:19:28;;;;;;;9.57;5.03;;;;;;;;;;4430633;32;20268;-54
2021/09/15 07:21:53;;;;;;;11.90;5.32;;;;;;;;;;4432245;32;20205;-55
2021/09/15 07:24:19;;;;;;;7.20;4.45;;;;;;;;;;4428188;32;20272;-55
2021/09/15 07:26:45;;;;;;;10.35;4.90;;;;;;;;;;4427991;32;20259;-55
2021/09/15 07:29:10;;;;;;;11.32;4.90;;;;;;;;;;4432052;32;20248;-55
2021/09/15 07:31:38;;;;;;;7.35;4.70;;;;;;;;;;4431215;32;20229;-55
2021/09/15 07:34:05;;;;;;;6.75;4.47;;;;;;;;;;4418403;32;20312;-55
2021/09/15 07:36:31;;;;;;;7.85;4.53;;;;;;;;;;4424264;32;20212;-55
2021/09/15 07:38:57;;;;;;;9.80;4.35;;;;;;;;;;4433035;32;20342;-55
2021/09/15 07:41:22;;;;;;;6.78;3.60;;;;;;;;;;4432341;32;20684;-56
2021/09/15 07:43:48;;;;;;;8.43;4.95;;;;;;;;;;4431882;32;20244;-54
2021/09/15 07:46:14;;;;;;;7.18;4.18;;;;;;;;;;4423474;32;20213;-54
2021/09/15 07:48:40;;;;;;;6.37;4.10;;;;;;;;;;4431226;32;20264;-54
2021/09/15 07:51:05;;;;;;;11.70;4.45;;;;;;;;;;4430916;32;20217;-54
2021/09/15 07:53:30;;;;;;;5.97;3.75;;;;;;;;;;4431582;32;20220;-54
2021/09/15 07:55:56;;;;;;;7.45;4.30;;;;;;;;;;4428015;32;20716;-56
2021/09/15 07:58:23;;;;;;;9.65;4.30;;;;;;;;;;4422615;32;20434;-54
2021/09/15 08:00:48;;;;;;;10.50;4.65;;;;;;;;;;4425933;32;20323;-55
2021/09/15 08:03:14;;;;;;;7.28;4.78;;;;;;;;;;4420989;32;20249;-55
2021/09/15 08:05:39;;;;;;;8.95;4.35;;;;;;;;;;4429940;32;20226;-55
2021/09/15 08:08:05;;;;;;;6.80;4.22;;;;;;;;;;4431603;32;20286;-55
2021/09/15 08:10:31;;;;;;;7.60;4.15;;;;;;;;;;4421749;32;20212;-55
2021/09/15 08:12:56;;;;;;;5.30;4.00;;;;;;;;;;4430137;32;20295;-54
2021/09/15 08:15:22;;;;;;;8.82;4.00;;;;;;;;;;4423519;32;20675;-55
2021/09/15 08:17:50;;;;;;;4.80;4.10;;;;;;;;;;4417689;32;20264;-55
2021/09/15 08:20:16;;;;;;;7.78;4.37;;;;;;;;;;4425778;32;20221;-54
2021/09/15 08:22:42;;;;;;;7.85;4.40;;;;;;;;;;4426992;32;20312;-55
2021/09/15 08:25:08;;;;;;;7.65;4.57;;;;;;;;;;4420818;32;20724;-55
2021/09/15 08:27:33;;;;;;;6.18;4.00;;;;;;;;;;4428008;32;20323;-55
2021/09/15 08:29:59;;;;;;;5.82;4.15;;;;;;;;;;4425036;32;20624;-54
2021/09/15 08:32:24;;;;;;;8.70;4.57;;;;;;;;;;4426473;32;20722;-55
2021/09/15 08:34:50;;;;;;;8.43;4.78;;;;;;;;;;4432995;32;20283;-55
2021/09/15 08:37:15;;;;;;;8.40;5.30;;;;;;;;;;4420647;32;20245;-55
2021/09/15 08:39:41;;;;;;;12.25;4.37;;;;;;;;;;4418957;32;20335;-54
2021/09/15 08:42:06;;;;;;;10.40;5.30;;;;;;;;;;4417463;32;20299;-54
2021/09/15 08:44:32;;;;;;;13.65;5.18;;;;;;;;;;4421842;32;20656;-57
2021/09/15 08:46:58;;;;;;;6.18;4.22;;;;;;;;;;4417556;32;20291;-55
2021/09/15 08:49:27;;;;;;;12.70;3.95;;;;;;;;;;4424905;32;20318;-56
2021/09/15 08:51:52;;;;;;;7.50;3.83;;;;;;;;;;4418671;32;20610;-55
2021/09/15 08:54:18;;;;;;;9.00;4.70;;;;;;;;;;4428291;32;20323;-55
2021/09/15 08:56:43;;;;;;;6.45;4.00;;;;;;;;;;4421590;32;20311;-55
2021/09/15 08:59:09;;;;;;;8.48;4.90;;;;;;;;;;4424591;32;20327;-54
2021/09/15 09:01:34;;;;;;;5.57;4.10;;;;;;;;;;4402873;32;20254;-61
2021/09/15 09:04:00;;;;;;;6.95;4.55;;;;;;;;;;4420986;32;20252;-55
2021/09/15 09:06:30;;;;;;;9.88;4.35;;;;;;;;;;4421130;32;20256;-55
2021/09/15 09:08:57;;;;;;;6.75;3.53;;;;;;;;;;4427885;32;20249;-55
2021/09/15 09:11:28;;;;;;;6.68;4.47;;;;;;;;;;4420566;32;20304;-56
2021/09/15 09:13:55;;;;;;;14.60;4.57;;;;;;;;;;4424909;32;20244;-54
2021/09/15 09:16:40;;;;;;;7.30;4.55;;;;;;;;;;4417548;32;20421;-54
2021/09/15 09:19:09;;;;;;;9.02;4.97;;;;;;;;;;4421290;32;20788;-54
2021/09/15 09:21:37;;;;;;;7.72;4.85;;;;;;;;;;4417731;32;20685;-55
2021/09/15 09:24:11;;;;;;;6.78;4.22;;;;;;;;;;4423791;32;20653;-55
2021/09/15 09:26:50;;;;;;;6.40;4.00;;;;;;;;;;4409318;32;20257;-55
2021/09/15 09:29:24;;;;;;;8.32;4.62;;;;;;;;;;4422354;32;20296;-56
2021/09/15 09:32:08;;;;;;;7.57;4.03;;;;;;;;;;4422945;32;20283;-56
2021/09/15 09:34:45;;;;;;;3.62;3.12;;;;;;;;;;4421579;32;20562;-55
2021/09/15 09:37:17;;;;;;;6.37;3.45;;;;;;;;;;4426712;32;20454;-56
2021/09/15 09:39:45;;;;;;;4.35;2.85;;;;;;;;;;4423654;32;20217;-54
2021/09/15 09:42:23;;;;;;;4.82;3.60;;;;;;;;;;4417757;32;20337;-54
2021/09/15 09:45:07;;;;;;;4.68;3.55;;;;;;;;;;4425658;32;20700;-55
2021/09/15 09:47:35;;;;;;;4.78;2.35;;;;;;;;;;4422830;32;20220;-54
2021/09/15 09:50:02;;;;;;;6.60;3.25;;;;;;;;;;4425724;32;20222;-54
2021/09/15 09:52:28;;;;;;;8.23;3.37;;;;;;;;;;4426139;32;20625;-55
2021/09/15 09:55:04;;;;;;;8.45;3.85;;;;;;;;;;4429530;32;20309;-56
2021/09/15 09:57:30;;;;;;;6.65;3.42;;;;;;;;;;4427196;32;20683;-54
2021/09/15 09:59:57;;;;;;;6.78;3.85;;;;;;;;;;4429339;32;20675;-56
2021/09/15 10:02:24;;;;;;;5.75;3.72;;;;;;;;;;4427213;32;20322;-54
2021/09/15 10:04:49;;;;;;;9.13;3.97;;;;;;;;;;4428272;32;20295;-55
2021/09/15 10:07:15;;;;;;;4.78;3.10;;;;;;;;;;4421661;32;20237;-54
2021/09/15 10:09:43;;;;;;;3.62;3.10;;;;;;;;;;4418902;32;20271;-54
2021/09/15 10:12:10;;;;;;;6.22;3.03;;;;;;;;;;4424635;32;21007;-53
2021/09/15 10:14:36;;;;;;;6.20;3.30;;;;;;;;;;4423200;32;20303;-54
2021/09/15 10:17:09;;;;;;;6.18;3.15;;;;;;;;;;4421855;32;20248;-54
2021/09/15 10:19:39;;;;;;;12.63;2.78;;;;;;;;;;4424576;32;20649;-54
2021/09/15 10:22:06;;;;;;;4.82;3.10;;;;;;;;;;4423831;32;20241;-54
2021/09/15 10:24:52;;;;;;;4.55;3.08;;;;;;;;;;4426610;32;20317;-54
2021/09/15 10:27:20;;;;;;;8.52;3.45;;;;;;;;;;4408690;32;20382;-54
2021/09/15 10:30:00;;;;;;;6.97;3.47;;;;;;;;;;4423415;32;20225;-54
2021/09/15 10:32:37;;;;;;;3.90;3.00;;;;;;;;;;4428843;32;20232;-54
2021/09/15 10:35:07;;;;;;;8.88;3.55;;;;;;;;;;4428396;32;20274;-54
2021/09/15 10:37:32;;;;;;;3.70;2.75;;;;;;;;;;4428681;32;20267;-54
2021/09/15 10:40:02;;;;;;;7.75;3.25;;;;;;;;;;4429987;32;20331;-54
2021/09/15 10:42:34;;;;;;;4.03;3.25;;;;;;;;;;4416440;32;20622;-54
2021/09/15 10:45:08;;;;;;;8.55;3.45;;;;;;;;;;4424186;32;20311;-55
2021/09/15 10:47:48;;;;;;;5.62;3.10;;;;;;;;;;4417796;32;20244;-55
2021/09/15 10:50:45;;;;;;;5.55;3.37;;;;;;;;;;4428075;32;20268;-54
2021/09/15 10:53:14;;;;;;;8.65;3.28;;;;;;;;;;4400880;32;20222;-55
2021/09/15 10:55:50;;;;;;;3.92;3.12;;;;;;;;;;4431543;32;20294;-55
2021/09/15 10:58:28;;;;;;;8.13;3.72;;;;;;;;;;4422705;32;20279;-54
2021/09/15 11:01:04;;;;;;;4.82;3.30;;;;;;;;;;4424428;32;20213;-54
2021/09/15 11:03:32;;;;;;;7.62;3.47;;;;;;;;;;4424473;32;20330;-54
2021/09/15 11:06:21;;;;;;;3.95;3.17;;;;;;;;;;4426222;32;20476;-53
2021/09/15 11:08:51;;;;;;;11.45;2.42;;;;;;;;;;4419650;32;20264;-53
2021/09/15 11:11:19;;;;;;;5.37;3.08;;;;;;;;;;4419672;32;20201;-54
2021/09/15 11:13:48;;;;;;;3.97;3.03;;;;;;;;;;4410615;32;20856;-55
2021/09/15 11:16:23;;;;;;;4.43;2.65;;;;;;;;;;4432407;32;20278;-54
2021/09/15 11:19:03;;;;;;;5.25;3.50;;;;;;;;;;4430503;32;20248;-54
2021/09/15 11:21:31;;;;;;;3.90;2.53;;;;;;;;;;4421149;32;20224;-54
2021/09/15 11:24:00;;;;;;;5.57;3.72;;;;;;;;;;4423662;32;20217;-54
2021/09/15 11:26:36;;;;;;;8.63;3.15;;;;;;;;;;4423081;32;20267;-54
2021/09/15 11:29:01;;;;;;;7.10;2.80;;;;;;;;;;4424346;32;20749;-54
2021/09/15 11:31:32;;;;;;;3.75;3.03;;;;;;;;;;4425957;32;20273;-54
2021/09/15 11:34:06;;;;;;;4.57;2.60;;;;;;;;;;4427522;32;20279;-54
2021/09/15 11:36:32;;;;;;;3.55;2.53;;;;;;;;;;4421625;32;20605;-55
2021/09/15 11:38:57;;;;;;;5.78;2.60;;;;;;;;;;4425800;32;20232;-55
2021/09/15 11:41:23;;;;;;;3.17;2.45;;;;;;;;;;4432354;32;20225;-55
2021/09/15 11:43:49;;;;;;;2.87;2.30;;;;;;;;;;4425369;32;20299;-55
2021/09/15 11:46:17;;;;;;;3.37;2.25;;;;;;;;;;4419727;32;20665;-55
2021/09/15 11:48:43;;;;;;;3.70;3.00;;;;;;;;;;4424290;32;20216;-55
2021/09/15 11:51:29;;;;;;;4.43;2.42;;;;;;;;;;4418358;32;20663;-56
2021/09/15 11:54:13;;;;;;;4.43;2.28;;;;;;;;;;4423152;32;20243;-54
2021/09/15 11:56:52;;;;;;;5.85;2.65;;;;;;;;;;4415487;32;20319;-55
2021/09/15 11:59:22;;;;;;;4.62;2.65;;;;;;;;;;4419653;32;20734;-54
2021/09/15 12:01:48;;;;;;;4.40;2.92;;;;;;;;;;4425770;32;20384;-54
2021/09/15 12:04:22;;;;;;;3.95;2.45;;;;;;;;;;4419068;32;20321;-54
2021/09/15 12:06:48;;;;;;;5.12;3.03;;;;;;;;;;4429339;32;20353;-54
2021/09/15 12:09:14;;;;;;;3.50;2.58;;;;;;;;;;4427485;32;20386;-54
2021/09/15 12:11:40;;;;;;;4.60;2.78;;;;;;;;;;4422994;32;20298;-54
2021/09/15 12:14:08;;;;;;;3.47;2.60;;;;;;;;;;4428790;32;20370;-55
2021/09/15 12:16:35;;;;;;;3.90;2.67;;;;;;;;;;4428214;32;20297;-54
2021/09/15 12:19:01;;;;;;;4.43;3.17;;;;;;;;;;4421451;32;20276;-55
2021/09/15 12:21:29;;;;;;;6.45;2.62;;;;;;;;;;4427206;32;20326;-55
2021/09/15 12:24:04;;;;;;;4.62;3.12;;;;;;;;;;4426596;32;20268;-55
2021/09/15 12:26:30;;;;;;;7.20;2.80;;;;;;;;;;4426669;32;20240;-55
2021/09/15 12:29:06;;;;;;;3.05;2.50;;;;;;;;;;4423382;32;20720;-55
2021/09/15 12:31:43;;;;;;;4.28;2.80;;;;;;;;;;4421793;32;20273;-55
2021/09/15 12:34:10;;;;;;;5.37;3.17;;;;;;;;;;4428141;32;20801;-54
2021/09/15 12:36:36;;;;;;;8.90;2.85;;;;;;;;;;4426920;32;20209;-54
2021/09/15 12:39:09;;;;;;;7.85;2.92;;;;;;;;;;4419716;32;20247;-55
2021/09/15 12:41:56;;;;;;;3.72;3.03;;;;;;;;;;4421939;32;20658;-54
2021/09/15 12:44:32;;;;;;;5.53;2.97;;;;;;;;;;4423928;32;20235;-54
2021/09/15 12:46:57;;;;;;;4.18;2.97;;;;;;;;;;4426376;32;20288;-54
2021/09/15 12:49:34;;;;;;;5.53;3.17;;;;;;;;;;4429327;32;20366;-54
2021/09/15 12:52:00;;;;;;;3.25;2.95;;;;;;;;;;4427492;32;20326;-54
2021/09/15 12:54:26;;;;;;;3.62;3.08;;;;;;;;;;4425485;32;20979;-54
2021/09/15 12:56:52;;;;;;;4.55;2.60;;;;;;;;;;4428191;32;20217;-55
2021/09/15 12:59:28;;;;;;;3.28;2.70;;;;;;;;;;4432792;32;20400;-54
2021/09/15 13:02:31;;;;;;;5.82;3.30;;;;;;;;;;4419289;32;20622;-54
2021/09/15 13:05:00;;;;;;;3.50;2.60;;;;;;;;;;4425936;32;20209;-54
2021/09/15 13:07:26;;;;;;;3.92;2.90;;;;;;;;;;4429469;32;20229;-54
2021/09/15 13:09:53;;;;;;;4.03;2.55;;;;;;;;;;4430977;32;20354;-53
2021/09/15 13:12:21;;;;;;;5.57;3.05;;;;;;;;;;4429408;32;20528;-54
2021/09/15 13:14:54;;;;;;;6.28;3.28;;;;;;;;;;4426479;32;20641;-54
2021/09/15 13:17:20;;;;;;;9.70;3.45;;;;;;;;;;4428356;32;20268;-55
2021/09/15 13:19:46;;;;;;;4.90;3.28;;;;;;;;;;4431990;32;20299;-54
2021/09/15 13:22:11;;;;;;;7.05;2.70;;;;;;;;;;4424805;32;20303;-55
2021/09/15 13:24:37;;;;;;;2.95;2.22;;;;;;;;;;4429726;32;20312;-55
2021/09/15 13:27:04;;;;;;;3.78;2.50;;;;;;;;;;4420932;32;20234;-55
2021/09/15 13:29:31;;;;;;;4.72;3.00;;;;;;;;;;4435242;32;20225;-55
2021/09/15 13:31:57;;;;;;;5.50;3.20;;;;;;;;;;4427487;32;20412;-55
2021/09/15 13:34:22;;;;;;;5.25;3.28;;;;;;;;;;4420617;32;20284;-56
2021/09/15 13:36:48;;;;;;;5.82;3.10;;;;;;;;;;4426538;32;20235;-54
2021/09/15 13:39:13;;;;;;;3.20;2.37;;;;;;;;;;4427973;32;20284;-54
2021/09/15 13:41:39;;;;;;;5.70;3.00;;;;;;;;;;4421383;32;20241;-54
2021/09/15 13:44:05;;;;;;;5.32;3.15;;;;;;;;;;4427434;32;20248;-54
2021/09/15 13:46:31;;;;;;;4.82;3.40;;;;;;;;;;4433617;32;20312;-54
2021/09/15 13:48:57;;;;;;;6.30;3.45;;;;;;;;;;4431830;32;20650;-54
2021/09/15 13:51:22;;;;;;;10.20;3.10;;;;;;;;;;4426176;32;20380;-54
2021/09/15 13:53:48;;;;;;;8.35;3.72;;;;;;;;;;4427074;32;20297;-54
2021/09/15 13:56:13;;;;;;;9.40;3.40;;;;;;;;;;4427730;32;20276;-54
2021/09/15 13:58:39;;;;;;;6.70;3.42;;;;;;;;;;4424968;32;20549;-54
2021/09/15 14:01:04;;;;;;;3.62;2.53;;;;;;;;;;4423949;32;20268;-54
2021/09/15 14:03:30;;;;;;;23.08;3.60;;;;;;;;;;4423234;32;20332;-55
2021/09/15 14:05:55;;;;;;;3.37;2.45;;;;;;;;;;4422927;32;20220;-54
2021/09/15 14:08:21;;;;;;;15.15;3.05;;;;;;;;;;4420919;32;20247;-54
2021/09/15 14:10:46;;;;;;;5.43;3.50;;;;;;;;;;4425642;32;20330;-54
2021/09/15 14:13:12;;;;;;;18.60;4.37;;;;;;;;;;4425919;32;20248;-54
2021/09/15 14:15:39;;;;;;;4.18;2.58;;;;;;;;;;4424551;32;20330;-55
2021/09/15 14:18:05;;;;;;;8.65;3.12;;;;;;;;;;4422504;32;20672;-54
2021/09/15 14:20:30;;;;;;;6.82;3.15;;;;;;;;;;4427939;32;20227;-55
2021/09/15 14:22:56;;;;;;;8.07;3.58;;;;;;;;;;4427266;32;20243;-54
2021/09/15 14:25:21;;;;;;;4.40;2.97;;;;;;;;;;4425326;32;20239;-54
2021/09/15 14:27:47;;;;;;;11.40;3.53;;;;;;;;;;4429742;32;20322;-54
2021/09/15 14:30:16;;;;;;;9.27;4.70;;;;;;;;;;4426005;32;20300;-54
2021/09/15 14:32:41;;;;;;;6.40;4.60;;;;;;;;;;4422666;32;20663;-55
2021/09/15 14:35:07;;;;;;;7.87;4.90;;;;;;;;;;4424989;32;20319;-55
2021/09/15 14:37:33;;;;;;;5.93;4.20;;;;;;;;;;4422486;32;20263;-55
2021/09/15 14:39:59;;;;;;;5.55;2.87;;;;;;;;;;4411263;32;20293;-55
2021/09/15 14:42:24;;;;;;;9.63;3.05;;;;;;;;;;4408734;32;20272;-55
2021/09/15 14:44:49;;;;;;;12.37;4.95;;;;;;;;;;4426836;32;20267;-54
2021/09/15 14:47:15;;;;;;;10.88;5.32;;;;;;;;;;4418295;32;20216;-55